sensor_id;sensor_type;location;lat;lon;timestamp;temperature;humidity
27540;DHT22;15906;52.046;4.724;2023-07-24T00:00:20;18.70;99.90
27540;DHT22;15906;52.046;4.724;2023-07-24T00:02:46;18.80;99.90
27540;DHT22;15906;52.046;4.724;2023-07-24T00:05:11;18.80;99.90
27540;DHT22;15906;52.046;4.724;2023-07-24T00:07:37;18.60;99.90
27540;DHT22;15906;52.046;4.724;2023-07-24T00:10:03;18.60;99.90
27540;DHT22;15906;52.046;4.724;2023-07-24T00:12:29;18.60;99.90
27540;DHT22;15906;52.046;4.724;2023-07-24T00:14:55;18.50;99.90
27540;DHT22;15906;52.046;4.724;2023-07-24T00:17:20;18.50;99.90
27540;DHT22;15906;52.046;4.724;2023-07-24T00:19:46;18.60;99.90
27540;DHT22;15906;52.046;4.724;2023-07-24T00:22:12;18.50;99.90
27540;DHT22;15906;52.046;4.724;2023-07-24T00:24:37;18.40;99.90
27540;DHT22;15906;52.046;4.724;2023-07-24T00:27:03;18.60;99.90
27540;DHT22;15906;52.046;4.724;2023-07-24T00:29:29;18.50;99.90
27540;DHT22;15906;52.046;4.724;2023-07-24T00:31:54;18.50;99.90
27540;DHT22;15906;52.046;4.724;2023-07-24T00:34:20;18.50;99.90
27540;DHT22;15906;52.046;4.724;2023-07-24T00:36:45;18.50;99.90
27540;DHT22;15906;52.046;4.724;2023-07-24T00:39:13;18.50;99.90
27540;DHT22;15906;52.046;4.724;2023-07-24T00:41:39;18.50;99.90
27540;DHT22;15906;52.046;4.724;2023-07-24T00:44:04;18.50;99.90
27540;DHT22;15906;52.046;4.724;2023-07-24T00:46:30;18.50;99.90
27540;DHT22;15906;52.046;4.724;2023-07-24T00:48:58;18.40;99.90
27540;DHT22;15906;52.046;4.724;2023-07-24T00:51:25;18.50;99.90
27540;DHT22;15906;52.046;4.724;2023-07-24T00:53:51;18.50;99.90
27540;DHT22;15906;52.046;4.724;2023-07-24T00:56:17;18.50;99.90
27540;DHT22;15906;52.046;4.724;2023-07-24T00:58:42;18.40;99.90
27540;DHT22;15906;52.046;4.724;2023-07-24T01:01:10;18.50;99.90
27540;DHT22;15906;52.046;4.724;2023-07-24T01:03:36;18.30;99.90
27540;DHT22;15906;52.046;4.724;2023-07-24T01:06:03;18.40;99.90
27540;DHT22;15906;52.046;4.724;2023-07-24T01:08:29;18.30;99.90
27540;DHT22;15906;52.046;4.724;2023-07-24T01:10:57;18.20;99.90
27540;DHT22;15906;52.046;4.724;2023-07-24T01:13:26;18.10;99.90
27540;DHT22;15906;52.046;4.724;2023-07-24T01:16:10;18.20;99.90
27540;DHT22;15906;52.046;4.724;2023-07-24T01:18:39;18.20;99.90
27540;DHT22;15906;52.046;4.724;2023-07-24T01:21:06;18.10;99.90
27540;DHT22;15906;52.046;4.724;2023-07-24T01:24:16;18.20;99.90
27540;DHT22;15906;52.046;4.724;2023-07-24T01:26:46;18.20;99.90
27540;DHT22;15906;52.046;4.724;2023-07-24T01:29:11;18.10;99.90
27540;DHT22;15906;52.046;4.724;2023-07-24T01:31:37;18.10;99.90
27540;DHT22;15906;52.046;4.724;2023-07-24T01:34:02;18.10;99.90
27540;DHT22;15906;52.046;4.724;2023-07-24T01:36:28;18.10;99.90
27540;DHT22;15906;52.046;4.724;2023-07-24T01:38:54;18.10;99.90
27540;DHT22;15906;52.046;4.724;2023-07-24T01:41:20;18.10;99.90
27540;DHT22;15906;52.046;4.724;2023-07-24T01:43:45;18.00;99.90
27540;DHT22;15906;52.046;4.724;2023-07-24T01:46:11;18.00;99.90
27540;DHT22;15906;52.046;4.724;2023-07-24T01:48:36;18.00;99.90
27540;DHT22;15906;52.046;4.724;2023-07-24T01:51:02;18.10;99.90
27540;DHT22;15906;52.046;4.724;2023-07-24T01:53:27;18.00;99.90
27540;DHT22;15906;52.046;4.724;2023-07-24T01:55:53;18.10;99.90
27540;DHT22;15906;52.046;4.724;2023-07-24T01:58:18;18.10;99.90
27540;DHT22;15906;52.046;4.724;2023-07-24T02:00:44;18.20;99.90
27540;DHT22;15906;52.046;4.724;2023-07-24T02:03:10;18.20;99.90
27540;DHT22;15906;52.046;4.724;2023-07-24T02:05:35;18.20;99.90
27540;DHT22;15906;52.046;4.724;2023-07-24T02:08:01;18.20;99.90
27540;DHT22;15906;52.046;4.724;2023-07-24T02:10:26;18.20;99.90
27540;DHT22;15906;52.046;4.724;2023-07-24T02:12:52;18.20;99.90
27540;DHT22;15906;52.046;4.724;2023-07-24T02:15:17;18.20;99.90
27540;DHT22;15906;52.046;4.724;2023-07-24T02:17:43;18.20;99.90
27540;DHT22;15906;52.046;4.724;2023-07-24T02:20:08;18.20;99.90
27540;DHT22;15906;52.046;4.724;2023-07-24T02:22:34;18.20;99.90
27540;DHT22;15906;52.046;4.724;2023-07-24T02:25:00;18.20;99.90
27540;DHT22;15906;52.046;4.724;2023-07-24T02:27:28;18.20;99.90
27540;DHT22;15906;52.046;4.724;2023-07-24T02:29:54;18.10;99.90
27540;DHT22;15906;52.046;4.724;2023-07-24T02:32:20;18.20;99.90
27540;DHT22;15906;52.046;4.724;2023-07-24T02:34:49;18.30;99.90
27540;DHT22;15906;52.046;4.724;2023-07-24T02:37:14;18.20;99.90
27540;DHT22;15906;52.046;4.724;2023-07-24T02:39:40;18.20;99.90
27540;DHT22;15906;52.046;4.724;2023-07-24T02:42:05;18.20;99.90
27540;DHT22;15906;52.046;4.724;2023-07-24T02:44:33;18.20;99.90
27540;DHT22;15906;52.046;4.724;2023-07-24T02:46:59;18.20;99.90
27540;DHT22;15906;52.046;4.724;2023-07-24T02:49:24;18.30;99.90
27540;DHT22;15906;52.046;4.724;2023-07-24T02:51:50;18.30;99.90
27540;DHT22;15906;52.046;4.724;2023-07-24T02:54:15;18.20;99.90
27540;DHT22;15906;52.046;4.724;2023-07-24T02:56:41;18.30;99.90
27540;DHT22;15906;52.046;4.724;2023-07-24T02:59:06;18.30;99.90
27540;DHT22;15906;52.046;4.724;2023-07-24T03:01:32;18.20;99.90
27540;DHT22;15906;52.046;4.724;2023-07-24T03:03:57;18.20;99.90
27540;DHT22;15906;52.046;4.724;2023-07-24T03:06:23;18.30;99.90
27540;DHT22;15906;52.046;4.724;2023-07-24T03:08:49;18.30;99.90
27540;DHT22;15906;52.046;4.724;2023-07-24T03:11:14;18.20;99.90
27540;DHT22;15906;52.046;4.724;2023-07-24T03:13:40;18.20;99.90
27540;DHT22;15906;52.046;4.724;2023-07-24T03:16:06;18.10;99.90
27540;DHT22;15906;52.046;4.724;2023-07-24T03:18:32;18.10;99.90
27540;DHT22;15906;52.046;4.724;2023-07-24T03:20:58;18.20;99.90
27540;DHT22;15906;52.046;4.724;2023-07-24T03:23:24;18.20;99.90
27540;DHT22;15906;52.046;4.724;2023-07-24T03:25:50;18.20;99.90
27540;DHT22;15906;52.046;4.724;2023-07-24T03:28:15;18.10;99.90
27540;DHT22;15906;52.046;4.724;2023-07-24T03:30:41;18.10;99.90
27540;DHT22;15906;52.046;4.724;2023-07-24T03:33:06;18.10;99.90
27540;DHT22;15906;52.046;4.724;2023-07-24T03:35:32;18.10;99.90
27540;DHT22;15906;52.046;4.724;2023-07-24T03:37:58;18.10;99.90
27540;DHT22;15906;52.046;4.724;2023-07-24T03:40:23;18.10;99.90
27540;DHT22;15906;52.046;4.724;2023-07-24T03:42:49;18.10;99.90
27540;DHT22;15906;52.046;4.724;2023-07-24T03:45:14;18.10;99.90
27540;DHT22;15906;52.046;4.724;2023-07-24T03:47:40;18.10;99.90
27540;DHT22;15906;52.046;4.724;2023-07-24T03:50:06;18.00;99.90
27540;DHT22;15906;52.046;4.724;2023-07-24T03:52:31;18.00;99.90
27540;DHT22;15906;52.046;4.724;2023-07-24T03:54:57;18.00;99.90
27540;DHT22;15906;52.046;4.724;2023-07-24T03:57:22;18.10;99.90
27540;DHT22;15906;52.046;4.724;2023-07-24T03:59:48;18.00;99.90
27540;DHT22;15906;52.046;4.724;2023-07-24T04:02:13;18.00;99.90
27540;DHT22;15906;52.046;4.724;2023-07-24T04:04:39;18.00;99.90
27540;DHT22;15906;52.046;4.724;2023-07-24T04:07:05;17.90;99.90
27540;DHT22;15906;52.046;4.724;2023-07-24T04:09:31;17.90;99.90
27540;DHT22;15906;52.046;4.724;2023-07-24T04:11:56;17.90;99.90
27540;DHT22;15906;52.046;4.724;2023-07-24T04:14:22;17.90;99.90
27540;DHT22;15906;52.046;4.724;2023-07-24T04:16:47;17.80;99.90
27540;DHT22;15906;52.046;4.724;2023-07-24T04:19:13;17.90;99.90
27540;DHT22;15906;52.046;4.724;2023-07-24T04:21:39;17.80;99.90
27540;DHT22;15906;52.046;4.724;2023-07-24T04:24:04;17.80;99.90
27540;DHT22;15906;52.046;4.724;2023-07-24T04:26:30;17.80;99.90
27540;DHT22;15906;52.046;4.724;2023-07-24T04:28:55;17.80;99.90
27540;DHT22;15906;52.046;4.724;2023-07-24T04:31:21;17.90;99.90
27540;DHT22;15906;52.046;4.724;2023-07-24T04:33:46;17.80;99.90
27540;DHT22;15906;52.046;4.724;2023-07-24T04:36:12;17.70;99.90
27540;DHT22;15906;52.046;4.724;2023-07-24T04:38:38;17.80;99.90
27540;DHT22;15906;52.046;4.724;2023-07-24T04:41:03;17.80;99.90
27540;DHT22;15906;52.046;4.724;2023-07-24T04:43:29;17.80;99.90
27540;DHT22;15906;52.046;4.724;2023-07-24T04:45:56;17.70;99.90
27540;DHT22;15906;52.046;4.724;2023-07-24T04:48:21;17.70;99.90
27540;DHT22;15906;52.046;4.724;2023-07-24T04:50:53;17.80;99.90
27540;DHT22;15906;52.046;4.724;2023-07-24T04:53:19;17.70;99.90
27540;DHT22;15906;52.046;4.724;2023-07-24T04:55:45;17.70;99.90
27540;DHT22;15906;52.046;4.724;2023-07-24T04:58:11;17.70;99.90
27540;DHT22;15906;52.046;4.724;2023-07-24T05:00:36;17.80;99.90
27540;DHT22;15906;52.046;4.724;2023-07-24T05:03:02;17.80;99.90
27540;DHT22;15906;52.046;4.724;2023-07-24T05:05:28;17.80;99.90
27540;DHT22;15906;52.046;4.724;2023-07-24T05:07:53;17.80;99.90
27540;DHT22;15906;52.046;4.724;2023-07-24T05:10:19;17.90;99.90
27540;DHT22;15906;52.046;4.724;2023-07-24T05:12:44;17.90;99.90
27540;DHT22;15906;52.046;4.724;2023-07-24T05:15:10;17.90;99.90
27540;DHT22;15906;52.046;4.724;2023-07-24T05:17:35;17.80;99.90
27540;DHT22;15906;52.046;4.724;2023-07-24T05:20:01;17.80;99.90
27540;DHT22;15906;52.046;4.724;2023-07-24T05:22:26;17.80;99.90
27540;DHT22;15906;52.046;4.724;2023-07-24T05:24:52;17.90;99.90
27540;DHT22;15906;52.046;4.724;2023-07-24T05:27:17;17.90;99.90
27540;DHT22;15906;52.046;4.724;2023-07-24T05:29:43;18.00;99.90
27540;DHT22;15906;52.046;4.724;2023-07-24T05:32:10;18.00;99.90
27540;DHT22;15906;52.046;4.724;2023-07-24T05:34:35;17.90;99.90
27540;DHT22;15906;52.046;4.724;2023-07-24T05:37:01;17.90;99.90
27540;DHT22;15906;52.046;4.724;2023-07-24T05:39:26;17.90;99.90
27540;DHT22;15906;52.046;4.724;2023-07-24T05:41:52;17.90;99.90
27540;DHT22;15906;52.046;4.724;2023-07-24T05:44:17;18.00;99.90
27540;DHT22;15906;52.046;4.724;2023-07-24T05:46:43;17.90;99.90
27540;DHT22;15906;52.046;4.724;2023-07-24T05:49:08;18.00;99.90
27540;DHT22;15906;52.046;4.724;2023-07-24T05:51:34;18.00;99.90
27540;DHT22;15906;52.046;4.724;2023-07-24T05:53:59;18.30;99.90
27540;DHT22;15906;52.046;4.724;2023-07-24T05:56:25;18.30;99.90
27540;DHT22;15906;52.046;4.724;2023-07-24T05:58:50;18.40;99.90
27540;DHT22;15906;52.046;4.724;2023-07-24T06:01:16;18.50;99.90
27540;DHT22;15906;52.046;4.724;2023-07-24T06:03:42;18.50;99.90
27540;DHT22;15906;52.046;4.724;2023-07-24T06:06:07;18.70;99.90
27540;DHT22;15906;52.046;4.724;2023-07-24T06:08:33;18.70;99.90
27540;DHT22;15906;52.046;4.724;2023-07-24T06:10:58;18.70;99.90
27540;DHT22;15906;52.046;4.724;2023-07-24T06:13:24;18.80;99.90
27540;DHT22;15906;52.046;4.724;2023-07-24T06:15:51;18.70;99.90
27540;DHT22;15906;52.046;4.724;2023-07-24T06:18:17;18.80;99.90
27540;DHT22;15906;52.046;4.724;2023-07-24T06:20:42;18.90;99.90
27540;DHT22;15906;52.046;4.724;2023-07-24T06:23:08;19.00;99.90
27540;DHT22;15906;52.046;4.724;2023-07-24T06:25:33;19.10;99.90
27540;DHT22;15906;52.046;4.724;2023-07-24T06:27:59;19.10;99.90
27540;DHT22;15906;52.046;4.724;2023-07-24T06:30:25;19.10;99.90
27540;DHT22;15906;52.046;4.724;2023-07-24T06:32:51;19.20;99.90
27540;DHT22;15906;52.046;4.724;2023-07-24T06:35:16;19.40;99.90
27540;DHT22;15906;52.046;4.724;2023-07-24T06:37:42;19.40;99.90
27540;DHT22;15906;52.046;4.724;2023-07-24T06:40:08;19.50;99.90
27540;DHT22;15906;52.046;4.724;2023-07-24T06:42:34;19.50;99.90
27540;DHT22;15906;52.046;4.724;2023-07-24T06:44:59;19.50;99.90
27540;DHT22;15906;52.046;4.724;2023-07-24T06:47:25;19.70;99.90
27540;DHT22;15906;52.046;4.724;2023-07-24T06:49:51;19.70;99.90
27540;DHT22;15906;52.046;4.724;2023-07-24T06:52:16;19.80;99.90
27540;DHT22;15906;52.046;4.724;2023-07-24T06:54:42;19.80;99.90
27540;DHT22;15906;52.046;4.724;2023-07-24T06:57:07;19.90;99.90
27540;DHT22;15906;52.046;4.724;2023-07-24T06:59:33;19.90;99.90
27540;DHT22;15906;52.046;4.724;2023-07-24T07:01:58;20.10;99.90
27540;DHT22;15906;52.046;4.724;2023-07-24T07:04:24;20.20;99.90
27540;DHT22;15906;52.046;4.724;2023-07-24T07:06:49;20.20;99.90
27540;DHT22;15906;52.046;4.724;2023-07-24T07:09:15;20.20;99.90
27540;DHT22;15906;52.046;4.724;2023-07-24T07:11:40;20.20;99.90
27540;DHT22;15906;52.046;4.724;2023-07-24T07:14:08;20.20;99.90
27540;DHT22;15906;52.046;4.724;2023-07-24T07:16:34;20.20;99.90
27540;DHT22;15906;52.046;4.724;2023-07-24T07:19:00;20.30;99.90
27540;DHT22;15906;52.046;4.724;2023-07-24T07:21:25;20.50;99.90
27540;DHT22;15906;52.046;4.724;2023-07-24T07:23:51;20.70;99.90
27540;DHT22;15906;52.046;4.724;2023-07-24T07:26:16;20.80;99.90
27540;DHT22;15906;52.046;4.724;2023-07-24T07:28:42;20.90;99.90
27540;DHT22;15906;52.046;4.724;2023-07-24T07:31:10;20.80;99.90
27540;DHT22;15906;52.046;4.724;2023-07-24T07:33:35;20.80;99.90
27540;DHT22;15906;52.046;4.724;2023-07-24T07:36:01;20.80;99.90
27540;DHT22;15906;52.046;4.724;2023-07-24T07:38:27;20.90;99.90
27540;DHT22;15906;52.046;4.724;2023-07-24T07:40:53;21.00;99.90
27540;DHT22;15906;52.046;4.724;2023-07-24T07:43:18;21.00;99.90
27540;DHT22;15906;52.046;4.724;2023-07-24T07:45:44;21.00;99.90
27540;DHT22;15906;52.046;4.724;2023-07-24T07:48:09;21.00;99.90
27540;DHT22;15906;52.046;4.724;2023-07-24T07:50:35;21.20;99.90
27540;DHT22;15906;52.046;4.724;2023-07-24T07:53:00;21.30;99.90
27540;DHT22;15906;52.046;4.724;2023-07-24T07:55:26;21.20;99.90
27540;DHT22;15906;52.046;4.724;2023-07-24T07:57:51;21.10;99.90
27540;DHT22;15906;52.046;4.724;2023-07-24T08:00:17;21.20;99.90
27540;DHT22;15906;52.046;4.724;2023-07-24T08:02:43;21.20;99.90
27540;DHT22;15906;52.046;4.724;2023-07-24T08:05:10;21.30;99.90
27540;DHT22;15906;52.046;4.724;2023-07-24T08:07:36;21.60;99.90
27540;DHT22;15906;52.046;4.724;2023-07-24T08:10:02;21.40;99.90
27540;DHT22;15906;52.046;4.724;2023-07-24T08:12:28;21.20;99.90
27540;DHT22;15906;52.046;4.724;2023-07-24T08:14:54;20.90;99.90
27540;DHT22;15906;52.046;4.724;2023-07-24T08:17:20;20.70;99.90
27540;DHT22;15906;52.046;4.724;2023-07-24T08:19:46;20.50;99.90
27540;DHT22;15906;52.046;4.724;2023-07-24T08:22:11;20.40;99.90
27540;DHT22;15906;52.046;4.724;2023-07-24T08:24:37;20.20;99.90
27540;DHT22;15906;52.046;4.724;2023-07-24T08:27:02;20.20;99.90
27540;DHT22;15906;52.046;4.724;2023-07-24T08:29:28;20.10;99.90
27540;DHT22;15906;52.046;4.724;2023-07-24T08:31:54;20.10;99.90
27540;DHT22;15906;52.046;4.724;2023-07-24T08:34:19;20.20;99.90
27540;DHT22;15906;52.046;4.724;2023-07-24T08:36:45;20.20;99.90
27540;DHT22;15906;52.046;4.724;2023-07-24T08:39:11;20.20;99.90
27540;DHT22;15906;52.046;4.724;2023-07-24T08:41:37;20.40;99.90
27540;DHT22;15906;52.046;4.724;2023-07-24T08:44:07;20.70;99.90
27540;DHT22;15906;52.046;4.724;2023-07-24T08:46:37;21.20;99.90
27540;DHT22;15906;52.046;4.724;2023-07-24T08:49:04;21.50;99.90
27540;DHT22;15906;52.046;4.724;2023-07-24T08:51:30;21.80;99.90
27540;DHT22;15906;52.046;4.724;2023-07-24T08:53:57;22.00;99.90
27540;DHT22;15906;52.046;4.724;2023-07-24T08:56:23;21.90;99.90
27540;DHT22;15906;52.046;4.724;2023-07-24T08:58:48;21.60;99.90
27540;DHT22;15906;52.046;4.724;2023-07-24T09:01:14;21.40;99.90
27540;DHT22;15906;52.046;4.724;2023-07-24T09:03:40;21.20;99.90
27540;DHT22;15906;52.046;4.724;2023-07-24T09:06:07;21.20;99.90
27540;DHT22;15906;52.046;4.724;2023-07-24T09:08:41;21.10;99.90
27540;DHT22;15906;52.046;4.724;2023-07-24T09:11:08;21.10;99.90
27540;DHT22;15906;52.046;4.724;2023-07-24T09:13:40;21.10;99.90
27540;DHT22;15906;52.046;4.724;2023-07-24T09:16:07;21.10;99.90
27540;DHT22;15906;52.046;4.724;2023-07-24T09:18:42;21.60;99.90
27540;DHT22;15906;52.046;4.724;2023-07-24T09:21:09;22.00;99.90
27540;DHT22;15906;52.046;4.724;2023-07-24T09:23:37;22.10;99.90
27540;DHT22;15906;52.046;4.724;2023-07-24T09:26:06;22.00;99.90
27540;DHT22;15906;52.046;4.724;2023-07-24T09:28:33;22.10;99.90
27540;DHT22;15906;52.046;4.724;2023-07-24T09:30:59;22.10;99.90
27540;DHT22;15906;52.046;4.724;2023-07-24T09:36:02;22.10;99.90
27540;DHT22;15906;52.046;4.724;2023-07-24T09:38:28;22.00;99.90
27540;DHT22;15906;52.046;4.724;2023-07-24T09:40:55;21.90;99.90
27540;DHT22;15906;52.046;4.724;2023-07-24T09:43:22;21.90;99.90
27540;DHT22;15906;52.046;4.724;2023-07-24T09:45:49;21.60;99.90
27540;DHT22;15906;52.046;4.724;2023-07-24T09:48:16;21.50;99.90
27540;DHT22;15906;52.046;4.724;2023-07-24T09:50:44;21.40;99.90
27540;DHT22;15906;52.046;4.724;2023-07-24T09:56:00;21.70;99.90
27540;DHT22;15906;52.046;4.724;2023-07-24T09:58:26;21.80;99.90
27540;DHT22;15906;52.046;4.724;2023-07-24T10:00:53;21.80;99.90
27540;DHT22;15906;52.046;4.724;2023-07-24T10:03:18;21.80;99.90
27540;DHT22;15906;52.046;4.724;2023-07-24T10:05:46;21.80;99.90
27540;DHT22;15906;52.046;4.724;2023-07-24T10:08:18;21.80;99.90
27540;DHT22;15906;52.046;4.724;2023-07-24T10:10:44;22.10;99.90
27540;DHT22;15906;52.046;4.724;2023-07-24T10:13:11;22.70;99.90
27540;DHT22;15906;52.046;4.724;2023-07-24T10:15:41;22.90;99.90
27540;DHT22;15906;52.046;4.724;2023-07-24T10:18:07;22.90;99.90
27540;DHT22;15906;52.046;4.724;2023-07-24T10:20:37;22.70;99.90
27540;DHT22;15906;52.046;4.724;2023-07-24T10:23:05;22.60;99.90
27540;DHT22;15906;52.046;4.724;2023-07-24T10:25:32;22.30;99.90
27540;DHT22;15906;52.046;4.724;2023-07-24T10:28:05;22.20;99.90
27540;DHT22;15906;52.046;4.724;2023-07-24T10:30:40;22.10;99.90
27540;DHT22;15906;52.046;4.724;2023-07-24T10:33:17;22.40;99.90
27540;DHT22;15906;52.046;4.724;2023-07-24T10:35:44;22.70;99.90
27540;DHT22;15906;52.046;4.724;2023-07-24T10:38:12;23.20;99.90
27540;DHT22;15906;52.046;4.724;2023-07-24T10:40:40;23.50;99.90
27540;DHT22;15906;52.046;4.724;2023-07-24T10:43:12;24.00;99.90
27540;DHT22;15906;52.046;4.724;2023-07-24T10:45:51;24.50;99.90
27540;DHT22;15906;52.046;4.724;2023-07-24T10:48:19;24.90;99.90
27540;DHT22;15906;52.046;4.724;2023-07-24T10:50:47;25.20;99.90
27540;DHT22;15906;52.046;4.724;2023-07-24T10:53:20;25.20;99.90
27540;DHT22;15906;52.046;4.724;2023-07-24T10:55:47;25.00;99.90
27540;DHT22;15906;52.046;4.724;2023-07-24T10:58:14;24.50;99.90
27540;DHT22;15906;52.046;4.724;2023-07-24T11:00:40;24.40;99.90
27540;DHT22;15906;52.046;4.724;2023-07-24T11:03:12;25.00;99.90
27540;DHT22;15906;52.046;4.724;2023-07-24T11:05:45;25.30;99.90
27540;DHT22;15906;52.046;4.724;2023-07-24T11:08:12;25.60;99.90
27540;DHT22;15906;52.046;4.724;2023-07-24T11:10:47;25.90;99.90
27540;DHT22;15906;52.046;4.724;2023-07-24T11:13:14;26.00;99.90
27540;DHT22;15906;52.046;4.724;2023-07-24T11:15:40;25.60;99.90
27540;DHT22;15906;52.046;4.724;2023-07-24T11:18:05;25.10;99.90
27540;DHT22;15906;52.046;4.724;2023-07-24T11:23:08;24.50;99.90
27540;DHT22;15906;52.046;4.724;2023-07-24T11:25:35;24.10;99.90
27540;DHT22;15906;52.046;4.724;2023-07-24T11:28:00;23.70;99.90
27540;DHT22;15906;52.046;4.724;2023-07-24T11:30:26;23.40;99.90
27540;DHT22;15906;52.046;4.724;2023-07-24T11:32:51;23.20;99.90
27540;DHT22;15906;52.046;4.724;2023-07-24T11:35:19;22.90;99.90
27540;DHT22;15906;52.046;4.724;2023-07-24T11:37:45;22.70;99.90
27540;DHT22;15906;52.046;4.724;2023-07-24T11:40:10;22.50;99.90
27540;DHT22;15906;52.046;4.724;2023-07-24T11:42:40;22.30;99.90
27540;DHT22;15906;52.046;4.724;2023-07-24T11:45:08;22.20;99.90
27540;DHT22;15906;52.046;4.724;2023-07-24T11:47:48;22.30;99.90
27540;DHT22;15906;52.046;4.724;2023-07-24T11:50:16;22.20;99.90
27540;DHT22;15906;52.046;4.724;2023-07-24T11:52:47;22.70;99.90
27540;DHT22;15906;52.046;4.724;2023-07-24T11:55:18;22.90;99.90
27540;DHT22;15906;52.046;4.724;2023-07-24T11:57:43;23.00;99.90
27540;DHT22;15906;52.046;4.724;2023-07-24T12:00:21;22.90;99.90
27540;DHT22;15906;52.046;4.724;2023-07-24T12:02:47;22.60;99.90
27540;DHT22;15906;52.046;4.724;2023-07-24T12:05:14;22.40;99.90
27540;DHT22;15906;52.046;4.724;2023-07-24T12:07:39;22.20;99.90
27540;DHT22;15906;52.046;4.724;2023-07-24T12:10:07;22.10;99.90
27540;DHT22;15906;52.046;4.724;2023-07-24T12:12:59;22.00;99.90
27540;DHT22;15906;52.046;4.724;2023-07-24T12:15:25;21.70;99.90
27540;DHT22;15906;52.046;4.724;2023-07-24T12:17:52;21.60;99.90
27540;DHT22;15906;52.046;4.724;2023-07-24T12:20:17;21.70;99.90
27540;DHT22;15906;52.046;4.724;2023-07-24T12:22:43;21.70;99.90
27540;DHT22;15906;52.046;4.724;2023-07-24T12:25:09;21.90;99.90
27540;DHT22;15906;52.046;4.724;2023-07-24T12:27:35;22.10;99.90
27540;DHT22;15906;52.046;4.724;2023-07-24T12:30:00;22.20;99.90
27540;DHT22;15906;52.046;4.724;2023-07-24T12:32:26;22.40;99.90
27540;DHT22;15906;52.046;4.724;2023-07-24T12:34:53;22.40;99.90
27540;DHT22;15906;52.046;4.724;2023-07-24T12:37:19;22.20;99.90
27540;DHT22;15906;52.046;4.724;2023-07-24T12:39:45;22.10;99.90
27540;DHT22;15906;52.046;4.724;2023-07-24T12:42:11;22.10;99.90
27540;DHT22;15906;52.046;4.724;2023-07-24T12:44:37;21.90;99.90
27540;DHT22;15906;52.046;4.724;2023-07-24T12:47:03;21.80;99.90
27540;DHT22;15906;52.046;4.724;2023-07-24T12:49:29;21.70;99.90
27540;DHT22;15906;52.046;4.724;2023-07-24T12:51:55;21.80;99.90
27540;DHT22;15906;52.046;4.724;2023-07-24T12:54:20;22.00;99.90
27540;DHT22;15906;52.046;4.724;2023-07-24T12:56:47;22.40;99.90
27540;DHT22;15906;52.046;4.724;2023-07-24T12:59:13;22.60;99.90
27540;DHT22;15906;52.046;4.724;2023-07-24T13:01:39;22.40;99.90
27540;DHT22;15906;52.046;4.724;2023-07-24T13:04:04;22.30;99.90
27540;DHT22;15906;52.046;4.724;2023-07-24T13:06:30;22.10;99.90
27540;DHT22;15906;52.046;4.724;2023-07-24T13:08:56;21.90;99.90
27540;DHT22;15906;52.046;4.724;2023-07-24T13:11:21;21.70;99.90
27540;DHT22;15906;52.046;4.724;2023-07-24T13:13:47;21.70;99.90
27540;DHT22;15906;52.046;4.724;2023-07-24T13:16:13;21.60;99.90
27540;DHT22;15906;52.046;4.724;2023-07-24T13:18:38;21.60;99.90
27540;DHT22;15906;52.046;4.724;2023-07-24T13:21:04;21.50;99.90
27540;DHT22;15906;52.046;4.724;2023-07-24T13:23:31;21.50;99.90
27540;DHT22;15906;52.046;4.724;2023-07-24T13:25:57;21.50;99.90
27540;DHT22;15906;52.046;4.724;2023-07-24T13:28:22;21.30;99.90
27540;DHT22;15906;52.046;4.724;2023-07-24T13:30:48;21.30;99.90
27540;DHT22;15906;52.046;4.724;2023-07-24T13:33:13;21.20;99.90
27540;DHT22;15906;52.046;4.724;2023-07-24T13:35:39;21.10;99.90
27540;DHT22;15906;52.046;4.724;2023-07-24T13:38:04;21.00;99.90
27540;DHT22;15906;52.046;4.724;2023-07-24T13:40:30;20.90;99.90
27540;DHT22;15906;52.046;4.724;2023-07-24T13:42:55;20.70;99.90
27540;DHT22;15906;52.046;4.724;2023-07-24T13:45:21;20.70;99.90
27540;DHT22;15906;52.046;4.724;2023-07-24T13:47:47;20.60;99.90
27540;DHT22;15906;52.046;4.724;2023-07-24T13:50:12;20.50;99.90
27540;DHT22;15906;52.046;4.724;2023-07-24T13:52:38;20.70;99.90
27540;DHT22;15906;52.046;4.724;2023-07-24T13:55:04;20.70;99.90
27540;DHT22;15906;52.046;4.724;2023-07-24T13:57:29;20.70;99.90
27540;DHT22;15906;52.046;4.724;2023-07-24T13:59:55;20.90;99.90
27540;DHT22;15906;52.046;4.724;2023-07-24T14:02:20;20.80;99.90
27540;DHT22;15906;52.046;4.724;2023-07-24T14:04:46;20.80;99.90
27540;DHT22;15906;52.046;4.724;2023-07-24T14:07:11;21.10;99.90
27540;DHT22;15906;52.046;4.724;2023-07-24T14:09:38;21.20;99.90
27540;DHT22;15906;52.046;4.724;2023-07-24T14:12:04;21.10;99.90
27540;DHT22;15906;52.046;4.724;2023-07-24T14:14:30;21.30;99.90
27540;DHT22;15906;52.046;4.724;2023-07-24T14:16:56;21.30;99.90
27540;DHT22;15906;52.046;4.724;2023-07-24T14:19:22;21.00;99.90
27540;DHT22;15906;52.046;4.724;2023-07-24T14:21:49;20.80;99.90
27540;DHT22;15906;52.046;4.724;2023-07-24T14:24:15;20.70;99.90
27540;DHT22;15906;52.046;4.724;2023-07-24T14:26:40;20.80;99.90
27540;DHT22;15906;52.046;4.724;2023-07-24T14:29:06;20.80;99.90
27540;DHT22;15906;52.046;4.724;2023-07-24T14:31:32;20.80;99.90
27540;DHT22;15906;52.046;4.724;2023-07-24T14:33:57;20.80;99.90
27540;DHT22;15906;52.046;4.724;2023-07-24T14:36:23;20.90;99.90
27540;DHT22;15906;52.046;4.724;2023-07-24T14:38:49;21.00;99.90
27540;DHT22;15906;52.046;4.724;2023-07-24T14:41:16;20.90;99.90
27540;DHT22;15906;52.046;4.724;2023-07-24T14:43:42;20.70;99.90
27540;DHT22;15906;52.046;4.724;2023-07-24T14:46:07;20.40;99.90
27540;DHT22;15906;52.046;4.724;2023-07-24T14:48:33;20.30;99.90
27540;DHT22;15906;52.046;4.724;2023-07-24T14:50:58;20.10;99.90
27540;DHT22;15906;52.046;4.724;2023-07-24T14:53:24;20.00;99.90
27540;DHT22;15906;52.046;4.724;2023-07-24T14:55:49;19.90;99.90
27540;DHT22;15906;52.046;4.724;2023-07-24T14:58:15;19.80;99.90
27540;DHT22;15906;52.046;4.724;2023-07-24T15:00:40;19.80;99.90
27540;DHT22;15906;52.046;4.724;2023-07-24T15:03:06;19.90;99.90
27540;DHT22;15906;52.046;4.724;2023-07-24T15:05:31;19.80;99.90
27540;DHT22;15906;52.046;4.724;2023-07-24T15:07:57;19.90;99.90
27540;DHT22;15906;52.046;4.724;2023-07-24T15:10:23;20.00;99.90
27540;DHT22;15906;52.046;4.724;2023-07-24T15:12:48;19.90;99.90
27540;DHT22;15906;52.046;4.724;2023-07-24T15:15:14;19.80;99.90
27540;DHT22;15906;52.046;4.724;2023-07-24T15:17:39;19.60;99.90
27540;DHT22;15906;52.046;4.724;2023-07-24T15:20:06;19.40;99.90
27540;DHT22;15906;52.046;4.724;2023-07-24T15:22:34;19.40;99.90
27540;DHT22;15906;52.046;4.724;2023-07-24T15:24:59;19.40;99.90
27540;DHT22;15906;52.046;4.724;2023-07-24T15:27:25;19.40;99.90
27540;DHT22;15906;52.046;4.724;2023-07-24T15:29:50;19.30;99.90
27540;DHT22;15906;52.046;4.724;2023-07-24T15:32:16;19.20;99.90